createdAt,value
2023-03-13T00:00:07.127Z,5.91
2023-03-13T00:01:07.350Z,5.84
2023-03-13T00:02:07.508Z,5.92
2023-03-13T00:03:07.339Z,5.92
2023-03-13T00:04:07.083Z,5.95
2023-03-13T00:05:07.131Z,5.92
2023-03-13T00:06:07.700Z,6.05
2023-03-13T00:07:07.019Z,6.05
2023-03-13T00:08:07.255Z,6
2023-03-13T00:09:07.011Z,5.92
2023-03-13T00:10:07.224Z,5.92
2023-03-13T00:11:06.945Z,5.89
2023-03-13T00:12:06.920Z,5.98
2023-03-13T00:13:07.261Z,5.91
2023-03-13T00:14:07.205Z,5.91
2023-03-13T00:15:06.656Z,5.96
2023-03-13T00:16:06.988Z,5.87
2023-03-13T00:17:07.120Z,5.96
2023-03-13T00:18:06.849Z,5.95
2023-03-13T00:19:07.074Z,5.96
2023-03-13T00:20:06.798Z,6
2023-03-13T00:21:06.801Z,5.92
2023-03-13T00:22:06.767Z,6.02
2023-03-13T00:23:06.505Z,5.98
2023-03-13T00:24:07.018Z,6
2023-03-13T00:25:06.989Z,5.98
2023-03-13T00:26:06.463Z,6.02
2023-03-13T00:27:06.960Z,5.91
2023-03-13T00:28:06.421Z,5.88
2023-03-13T00:29:07.016Z,5.89
2023-03-13T00:30:06.906Z,5.95
2023-03-13T00:31:07.241Z,5.77
2023-03-13T00:32:06.741Z,5.81
2023-03-13T00:33:06.960Z,5.78
2023-03-13T00:34:06.727Z,5.75
2023-03-13T00:35:06.881Z,5.82
2023-03-13T00:36:06.880Z,5.78
2023-03-13T00:37:06.597Z,5.82
2023-03-13T00:38:06.597Z,5.75
2023-03-13T00:39:06.603Z,5.75
2023-03-13T00:40:06.576Z,5.8
2023-03-13T00:41:06.551Z,5.73
2023-03-13T00:42:06.300Z,5.77
2023-03-13T00:43:06.525Z,5.7
2023-03-13T00:44:06.827Z,5.82
2023-03-13T00:45:06.810Z,5.72
2023-03-13T00:46:06.881Z,5.75
2023-03-13T00:47:06.703Z,5.77
2023-03-13T00:48:06.447Z,5.82
2023-03-13T00:49:06.723Z,5.87
2023-03-13T00:50:06.768Z,5.8
2023-03-13T00:51:06.394Z,5.82
2023-03-13T00:52:06.637Z,5.85
2023-03-13T00:53:07.286Z,5.78
2023-03-13T00:54:07.295Z,5.75
2023-03-13T00:55:07.235Z,5.78
2023-03-13T00:56:07.478Z,5.82
2023-03-13T00:57:07.464Z,5.72
2023-03-13T00:58:07.180Z,5.73
2023-03-13T00:59:07.210Z,5.66
2023-03-13T01:00:07.408Z,5.62
2023-03-13T01:01:07.463Z,5.63
2023-03-13T01:02:07.673Z,5.63
2023-03-13T01:03:07.383Z,5.64
2023-03-13T01:04:07.109Z,5.63
2023-03-13T01:05:07.376Z,5.62
2023-03-13T01:06:07.341Z,5.59
2023-03-13T01:07:07.316Z,5.57
2023-03-13T01:08:07.303Z,5.67
2023-03-13T01:09:07.264Z,5.59
2023-03-13T01:10:07.004Z,5.66
2023-03-13T01:11:07.253Z,5.6
2023-03-13T01:12:06.968Z,5.6
2023-03-13T01:13:06.952Z,5.66
2023-03-13T01:14:06.952Z,5.63
2023-03-13T01:15:07.194Z,5.67
2023-03-13T01:16:06.981Z,5.72
2023-03-13T01:17:07.245Z,5.64
2023-03-13T01:18:06.872Z,5.73
2023-03-13T01:19:07.112Z,5.75
2023-03-13T01:20:06.884Z,5.7
2023-03-13T01:21:06.860Z,5.78
2023-03-13T01:22:07.059Z,5.72
2023-03-13T01:23:06.809Z,5.72
2023-03-13T01:24:07.041Z,5.77
2023-03-13T01:25:06.756Z,5.72
2023-03-13T01:26:07.000Z,5.78
2023-03-13T01:27:06.982Z,5.82
2023-03-13T01:28:06.989Z,5.82
2023-03-13T01:29:06.974Z,5.87
2023-03-13T01:30:06.933Z,5.78
2023-03-13T01:31:06.813Z,5.75
2023-03-13T01:32:06.912Z,5.88
2023-03-13T01:33:06.971Z,5.85
2023-03-13T01:34:06.906Z,5.95
2023-03-13T01:35:06.855Z,5.88
2023-03-13T01:36:06.769Z,5.85
2023-03-13T01:37:06.825Z,5.95
2023-03-13T01:38:06.552Z,5.88
2023-03-13T01:39:06.562Z,5.91
2023-03-13T01:40:06.840Z,5.89
2023-03-13T01:41:06.523Z,6
2023-03-13T01:42:06.758Z,5.92
2023-03-13T01:43:11.950Z,5.89
2023-03-13T01:44:06.716Z,5.89
2023-03-13T01:45:06.206Z,5.96
2023-03-13T01:46:06.968Z,5.91
2023-03-13T01:47:06.691Z,5.92
2023-03-13T01:48:06.630Z,5.95
2023-03-13T01:49:06.727Z,6.02
2023-03-13T01:50:06.618Z,5.99
2023-03-13T01:51:06.750Z,6.02
2023-03-13T01:52:06.629Z,5.99
2023-03-13T01:53:06.302Z,6
2023-03-13T01:54:06.304Z,6.07
2023-03-13T01:55:06.536Z,6.03
2023-03-13T01:56:06.002Z,6.03
2023-03-13T01:57:06.518Z,6.06
2023-03-13T01:58:06.219Z,6.07
2023-03-13T01:59:06.260Z,6.07
2023-03-13T02:00:06.195Z,6.06
2023-03-13T02:01:06.443Z,6.1
2023-03-13T02:02:06.781Z,6.05
2023-03-13T02:03:06.660Z,6.02
2023-03-13T02:04:06.134Z,6.13
2023-03-13T02:05:06.649Z,6.09
2023-03-13T02:06:06.460Z,6.09
2023-03-13T02:07:06.343Z,6.06
2023-03-13T02:08:06.322Z,6.1
2023-03-13T02:09:06.305Z,6.13
2023-03-13T02:10:06.184Z,6.14
2023-03-13T02:11:06.018Z,6.17
2023-03-13T02:12:06.260Z,6.1
2023-03-13T02:13:05.719Z,6.18
2023-03-13T02:14:06.236Z,6.14
2023-03-13T02:15:05.961Z,6.24
2023-03-13T02:16:06.531Z,6.26
2023-03-13T02:17:06.232Z,6.29
2023-03-13T02:18:05.717Z,6.26
2023-03-13T02:19:06.142Z,6.33
2023-03-13T02:20:06.658Z,6.31
2023-03-13T02:21:06.960Z,6.25
2023-03-13T02:22:06.974Z,6.26
2023-03-13T02:23:06.860Z,6.34
2023-03-13T02:24:06.584Z,6.29
2023-03-13T02:25:06.568Z,6.25
2023-03-13T02:26:06.567Z,6.29
2023-03-13T02:27:06.306Z,6.33
2023-03-13T02:28:06.769Z,6.24
2023-03-13T02:29:06.496Z,6.29
2023-03-13T02:31:06.994Z,6.47
2023-03-13T02:32:06.465Z,6.4
2023-03-13T02:33:06.778Z,6.44
2023-03-13T02:34:06.426Z,6.43
2023-03-13T02:35:06.385Z,6.46
2023-03-13T02:36:06.822Z,6.42
2023-03-13T02:37:06.701Z,6.51
2023-03-13T02:38:06.635Z,6.44
2023-03-13T02:39:06.592Z,6.46
2023-03-13T02:40:06.615Z,6.52
2023-03-13T02:41:06.333Z,6.52
2023-03-13T02:42:07.513Z,6.49
2023-03-13T02:43:07.472Z,6.52
2023-03-13T02:44:07.226Z,6.54
2023-03-13T02:45:06.935Z,6.57
2023-03-13T02:46:07.480Z,6.57
2023-03-13T02:47:07.423Z,6.43
2023-03-13T02:48:07.381Z,6.6
2023-03-13T02:49:07.387Z,6.55
2023-03-13T02:50:07.354Z,6.55
2023-03-13T02:51:07.347Z,6.57
2023-03-13T02:52:07.079Z,6.54
2023-03-13T02:53:07.415Z,6.49
2023-03-13T02:54:07.481Z,6.54
2023-03-13T02:55:07.177Z,6.54
2023-03-13T02:56:07.005Z,6.54
2023-03-13T02:57:06.746Z,6.57
2023-03-13T02:58:06.993Z,6.57
2023-03-13T02:59:07.009Z,6.54
2023-03-13T03:00:06.702Z,6.58
2023-03-13T03:01:07.287Z,6.58
2023-03-13T03:02:07.202Z,6.54
2023-03-13T03:03:06.654Z,6.54
2023-03-13T03:04:07.061Z,6.65
2023-03-13T03:05:07.149Z,6.52
2023-03-13T03:06:06.858Z,6.67
2023-03-13T03:07:07.129Z,6.58
2023-03-13T03:08:07.079Z,6.61
2023-03-13T03:09:07.146Z,6.62
2023-03-13T03:10:06.828Z,6.61
2023-03-13T03:11:06.808Z,6.64
2023-03-13T03:12:07.014Z,6.65
2023-03-13T03:13:06.753Z,6.7
2023-03-13T03:14:06.993Z,6.6
2023-03-13T03:15:06.971Z,6.65
2023-03-13T03:16:06.862Z,6.64
2023-03-13T03:17:06.685Z,6.73
2023-03-13T03:18:06.938Z,6.68
2023-03-13T03:19:06.912Z,6.6
2023-03-13T03:20:06.892Z,6.57
2023-03-13T03:21:06.871Z,6.62
2023-03-13T03:22:06.850Z,6.7
2023-03-13T03:23:06.621Z,6.7
2023-03-13T03:24:06.583Z,6.72
2023-03-13T03:25:06.886Z,6.72
2023-03-13T03:26:06.278Z,6.72
2023-03-13T03:27:06.780Z,6.76
2023-03-13T03:28:06.527Z,6.75
2023-03-13T03:29:06.516Z,6.83
2023-03-13T03:30:06.756Z,6.9
2023-03-13T03:31:06.471Z,6.85
2023-03-13T03:32:06.788Z,6.8
2023-03-13T03:33:06.503Z,6.9
2023-03-13T03:34:06.437Z,6.9
2023-03-13T03:35:06.749Z,6.94
2023-03-13T03:36:06.647Z,6.88
2023-03-13T03:37:06.357Z,6.9
2023-03-13T03:38:06.599Z,6.88
2023-03-13T03:39:06.079Z,7
2023-03-13T03:40:06.330Z,6.98
2023-03-13T03:41:06.650Z,6.98
2023-03-13T03:42:06.287Z,7.04
2023-03-13T03:43:06.573Z,7.01
2023-03-13T03:44:06.521Z,7.04
2023-03-13T03:45:06.244Z,7.01
2023-03-13T03:46:06.774Z,6.95
2023-03-13T03:47:06.713Z,7.08
2023-03-13T03:48:06.443Z,7.03
2023-03-13T03:49:06.184Z,7.04
2023-03-13T03:50:06.175Z,7.05
2023-03-13T03:51:06.169Z,7.05
2023-03-13T03:52:06.174Z,7.08
2023-03-13T03:53:06.378Z,7.09
2023-03-13T03:54:06.118Z,7.11
2023-03-13T03:55:05.856Z,7.09
2023-03-13T03:56:06.379Z,7.08
2023-03-13T03:57:06.402Z,6.97
2023-03-13T03:58:06.045Z,7.05
2023-03-13T03:59:05.776Z,7.01
2023-03-13T04:00:06.296Z,7.01
2023-03-13T04:01:05.764Z,7
2023-03-13T04:02:06.277Z,6.97
2023-03-13T04:03:06.329Z,7.09
2023-03-13T04:04:05.961Z,7.04
2023-03-13T04:05:05.947Z,7.03
2023-03-13T04:06:06.181Z,7.01
2023-03-13T04:07:05.956Z,7.04
2023-03-13T04:08:05.921Z,6.97
2023-03-13T04:09:05.883Z,7.05
2023-03-13T04:10:06.114Z,6.98
2023-03-13T04:11:06.102Z,7.03
2023-03-13T04:12:05.855Z,7.08
2023-03-13T04:13:06.200Z,7.03
2023-03-13T04:14:06.077Z,7
2023-03-13T04:15:05.786Z,7.11
2023-03-13T04:16:06.024Z,7.09
2023-03-13T04:17:06.047Z,7.11
2023-03-13T04:18:05.773Z,7.05
2023-03-13T04:19:06.003Z,7.12
2023-03-13T04:20:05.972Z,7.03
2023-03-13T04:21:05.708Z,7
2023-03-13T04:22:05.426Z,6.97
2023-03-13T04:23:05.680Z,7.04
2023-03-13T04:24:05.907Z,7.04
2023-03-13T04:25:05.390Z,7
2023-03-13T04:26:05.628Z,6.97
2023-03-13T04:27:05.604Z,7.05
2023-03-13T04:28:05.604Z,7.09
2023-03-13T04:29:05.911Z,7.03
2023-03-13T04:45:51.560Z,6.79
2023-03-13T04:46:51.336Z,6.75
2023-03-13T04:47:51.207Z,6.75
2023-03-13T04:48:51.291Z,6.73
2023-03-13T04:49:51.273Z,6.76
2023-03-13T04:50:51.290Z,6.73
2023-03-13T04:51:50.988Z,6.75
2023-03-13T04:52:54.037Z,6.78
2023-03-13T04:53:51.213Z,6.67
2023-03-13T04:54:51.272Z,6.58
2023-03-13T04:55:50.915Z,6.61
2023-03-13T04:56:50.910Z,6.65
2023-03-13T04:57:50.893Z,6.64
2023-03-13T04:58:51.659Z,6.61
2023-03-13T04:59:50.859Z,6.6
2023-03-13T05:00:50.864Z,6.55
2023-03-13T05:01:51.494Z,6.6
2023-03-13T05:02:51.067Z,6.61
2023-03-13T05:03:50.528Z,6.57
2023-03-13T05:04:53.580Z,6.61
2023-03-13T05:05:50.745Z,6.58
2023-03-13T05:06:51.013Z,6.62
2023-03-13T05:07:50.992Z,6.72
2023-03-13T05:08:50.968Z,6.64
2023-03-13T05:09:50.951Z,6.68
2023-03-13T05:10:50.684Z,6.65
2023-03-13T05:11:50.722Z,6.73
2023-03-13T05:12:50.905Z,6.7
2023-03-13T05:13:50.638Z,6.65
2023-03-13T05:14:50.874Z,6.68
2023-03-13T05:15:51.111Z,6.65
2023-03-13T05:16:50.605Z,6.73
2023-03-13T05:17:52.568Z,6.72
2023-03-13T05:18:50.814Z,6.62
2023-03-13T05:19:50.536Z,6.72
2023-03-13T05:20:50.844Z,6.73
2023-03-13T05:21:51.081Z,6.73
2023-03-13T05:22:51.055Z,6.78
2023-03-13T05:23:51.042Z,6.73
2023-03-13T05:24:51.026Z,6.83
2023-03-13T05:25:50.761Z,6.78
2023-03-13T05:26:50.991Z,6.82
2023-03-13T05:27:50.720Z,6.79
2023-03-13T05:28:50.986Z,6.86
2023-03-13T05:29:50.701Z,6.79
2023-03-13T05:30:50.529Z,6.9
2023-03-13T05:31:50.925Z,6.83
2023-03-13T05:32:51.139Z,6.94
2023-03-13T05:33:50.963Z,6.91
2023-03-13T05:34:50.650Z,6.88
2023-03-13T05:35:50.973Z,6.9
2023-03-13T05:36:50.881Z,6.86
2023-03-13T05:37:50.824Z,6.97
2023-03-13T05:38:50.561Z,7
2023-03-13T05:39:50.272Z,7
2023-03-13T05:40:50.535Z,7.05
2023-03-13T05:41:50.502Z,7.01
2023-03-13T05:42:50.489Z,7.11
2023-03-13T05:43:50.734Z,7.16
2023-03-13T05:44:50.451Z,7.21
2023-03-13T05:45:50.454Z,7.15
2023-03-13T05:46:50.695Z,7.15
2023-03-13T05:47:50.705Z,7.22
2023-03-13T05:48:50.669Z,7.13
2023-03-13T05:49:50.716Z,7.19
2023-03-13T05:50:50.360Z,7.27
2023-03-13T05:51:50.607Z,7.29
2023-03-13T05:52:50.353Z,7.27
2023-03-13T05:53:50.323Z,7.27
2023-03-13T05:54:50.056Z,7.36
2023-03-13T05:55:50.564Z,7.37
2023-03-13T05:56:50.533Z,7.39
2023-03-13T05:57:50.337Z,7.36
2023-03-13T05:58:50.529Z,7.34
2023-03-13T05:59:50.217Z,7.39
2023-03-13T06:00:50.465Z,7.39
2023-03-13T06:01:50.197Z,7.41
2023-03-13T06:02:50.431Z,7.4
2023-03-13T06:03:50.539Z,7.49
2023-03-13T06:04:50.860Z,7.4
2023-03-13T06:05:50.473Z,7.36
2023-03-13T06:06:50.369Z,7.41
2023-03-13T06:07:50.373Z,7.55
2023-03-13T06:08:50.092Z,7.45
2023-03-13T06:09:50.333Z,7.44
2023-03-13T06:10:50.316Z,7.59
2023-03-13T06:11:50.308Z,7.34
2023-03-13T06:12:50.280Z,7.51
2023-03-13T06:13:50.024Z,7.54
2023-03-13T06:14:50.250Z,7.55
2023-03-13T06:15:49.830Z,7.48
2023-03-13T06:16:50.347Z,7.45
2023-03-13T06:17:49.958Z,7.48
2023-03-13T06:18:50.223Z,7.48
2023-03-13T06:19:50.183Z,7.47
2023-03-13T06:20:50.165Z,7.49
2023-03-13T06:21:50.290Z,7.49
2023-03-13T06:22:50.121Z,7.47
2023-03-13T06:23:50.108Z,7.47
2023-03-13T06:24:49.846Z,7.55
2023-03-13T06:25:50.104Z,7.54
2023-03-13T06:26:52.074Z,7.52
2023-03-13T06:27:49.798Z,7.55
2023-03-13T06:28:50.056Z,7.48
2023-03-13T06:29:50.020Z,7.55
2023-03-13T06:30:50.025Z,7.55
2023-03-13T06:31:50.442Z,7.52
2023-03-13T06:32:50.121Z,7.61
2023-03-13T06:33:52.130Z,7.63
2023-03-13T06:34:49.693Z,7.64
2023-03-13T06:36:00.885Z,7.59
2023-03-13T06:36:49.665Z,7.59
2023-03-13T06:37:49.997Z,7.63
2023-03-13T06:38:49.897Z,7.67
2023-03-13T06:39:49.616Z,7.75
2023-03-13T06:40:52.232Z,7.82
2023-03-13T06:41:49.844Z,7.83
2023-03-13T06:42:49.572Z,7.8
2023-03-13T06:43:49.578Z,7.8
2023-03-13T06:44:49.548Z,7.89
2023-03-13T06:45:49.551Z,7.91
2023-03-13T06:46:50.024Z,7.95
2023-03-13T06:47:49.767Z,8.01
2023-03-13T06:48:49.752Z,8.06
2023-03-13T06:49:49.766Z,8.06
2023-03-13T06:50:49.485Z,8.09
2023-03-13T06:51:49.444Z,8.22
2023-03-13T06:52:49.185Z,8.28
2023-03-13T06:53:49.863Z,8.31
2023-03-13T06:54:49.406Z,8.29
2023-03-13T06:55:49.267Z,8.22
2023-03-13T06:56:49.628Z,8.28
2023-03-13T06:57:49.366Z,8.26
2023-03-13T06:58:49.375Z,8.25
2023-03-13T06:59:49.093Z,8.19
2023-03-13T07:00:49.778Z,8.29
2023-03-13T07:01:49.654Z,8.39
2023-03-13T07:02:49.540Z,8.25
2023-03-13T07:03:49.628Z,8.36
2023-03-13T07:04:50.175Z,8.31
2023-03-13T07:05:49.258Z,8.36
2023-03-13T07:06:49.518Z,8.34
2023-03-13T07:07:49.487Z,8.26
2023-03-13T07:08:49.465Z,8.44
2023-03-13T07:09:49.542Z,8.42
2023-03-13T07:10:49.176Z,8.36
2023-03-13T07:11:49.417Z,8.42
2023-03-13T07:12:49.444Z,8.39
2023-03-13T07:13:49.180Z,8.29
2023-03-13T07:14:49.387Z,8.34
2023-03-13T07:15:49.414Z,8.43
2023-03-13T07:16:49.700Z,8.34
2023-03-13T07:17:49.370Z,8.34
2023-03-13T07:18:49.172Z,8.34
2023-03-13T07:19:49.095Z,8.36
2023-03-13T07:20:48.843Z,8.49
2023-03-13T07:21:49.673Z,8.44
2023-03-13T07:22:49.020Z,8.44
2023-03-13T07:23:49.286Z,8.42
2023-03-13T07:24:49.191Z,8.46
2023-03-13T07:25:49.322Z,8.42
2023-03-13T07:27:10.384Z,8.46
2023-03-13T07:27:48.938Z,8.49
2023-03-13T07:28:48.928Z,8.46
2023-03-13T07:29:49.162Z,8.47
2023-03-13T07:30:49.151Z,8.44
2023-03-13T07:31:49.072Z,8.47
2023-03-13T07:32:49.133Z,8.61
2023-03-13T07:33:48.879Z,8.58
2023-03-13T07:34:48.860Z,8.57
2023-03-13T07:35:49.084Z,8.54
2023-03-13T07:36:49.072Z,8.58
2023-03-13T07:37:49.082Z,8.64
2023-03-13T07:38:49.158Z,8.62
2023-03-13T07:39:49.036Z,8.64
2023-03-13T07:40:48.760Z,8.65
2023-03-13T07:41:49.066Z,8.74
2023-03-13T07:42:48.980Z,8.69
2023-03-13T07:43:48.990Z,8.77
2023-03-13T07:44:48.968Z,8.74
2023-03-13T07:45:49.042Z,8.8
2023-03-13T07:46:48.916Z,8.71
2023-03-13T07:47:48.916Z,8.57
2023-03-13T07:48:48.977Z,8.67
2023-03-13T07:49:48.978Z,8.57
2023-03-13T07:50:48.463Z,8.5
2023-03-13T07:51:49.268Z,8.5
2023-03-13T07:52:48.504Z,8.46
2023-03-13T07:53:48.894Z,8.42
2023-03-13T07:54:48.626Z,8.44
2023-03-13T07:55:48.820Z,8.36
2023-03-13T07:56:48.527Z,8.49
2023-03-13T07:57:48.861Z,8.46
2023-03-13T07:58:48.503Z,8.43
2023-03-13T07:59:48.747Z,8.43
2023-03-13T08:00:48.730Z,8.44
2023-03-13T08:01:48.739Z,8.43
2023-03-13T08:02:48.515Z,8.46
2023-03-13T08:03:48.601Z,8.47
2023-03-13T08:04:48.433Z,8.53
2023-03-13T08:05:48.683Z,8.46
2023-03-13T08:06:48.640Z,8.57
2023-03-13T08:07:48.405Z,8.61
2023-03-13T08:08:48.656Z,8.61
2023-03-13T08:09:48.350Z,8.68
2023-03-13T08:10:48.592Z,8.79
2023-03-13T08:11:48.569Z,8.71
2023-03-13T08:12:48.304Z,8.76
2023-03-13T08:13:49.453Z,8.85
2023-03-13T08:14:49.135Z,8.8
2023-03-13T08:15:49.346Z,8.83
2023-03-13T08:16:49.501Z,8.83
2023-03-13T08:17:49.315Z,8.92
2023-03-13T08:18:49.305Z,8.98
2023-03-13T08:19:48.818Z,9
2023-03-13T08:20:50.496Z,8.94
2023-03-13T08:21:49.259Z,9.03
2023-03-13T08:22:49.295Z,9.01
2023-03-13T08:23:48.761Z,9.09
2023-03-13T08:24:48.964Z,9.05
2023-03-13T08:25:48.967Z,9
2023-03-13T08:26:48.949Z,9
2023-03-13T08:27:49.298Z,8.97
2023-03-13T08:28:48.901Z,9
2023-03-13T08:29:49.241Z,9.01
2023-03-13T08:30:49.290Z,8.97
2023-03-13T08:31:49.123Z,9.09
2023-03-13T08:32:49.305Z,9.03
2023-03-13T08:33:49.100Z,9.05
2023-03-13T08:34:48.852Z,9.16
2023-03-13T08:35:48.996Z,9.03
2023-03-13T08:36:49.115Z,9.08
2023-03-13T08:37:48.781Z,9.05
2023-03-13T08:38:50.737Z,9.08
2023-03-13T08:39:49.016Z,8.94
2023-03-13T08:40:49.012Z,9.04
2023-03-13T08:41:48.759Z,9.05
2023-03-13T08:42:48.706Z,9.01
2023-03-13T08:43:48.990Z,9.01
2023-03-13T08:44:48.954Z,8.94
2023-03-13T08:45:49.100Z,9.01
2023-03-13T08:46:49.490Z,9.01
2023-03-13T08:47:48.649Z,8.97
2023-03-13T08:48:48.889Z,9.04
2023-03-13T08:49:48.877Z,9.01
2023-03-13T08:50:48.608Z,8.98
2023-03-13T08:51:48.916Z,8.92
2023-03-13T08:52:48.587Z,8.92
2023-03-13T08:53:48.606Z,8.79
2023-03-13T08:54:48.804Z,8.89
2023-03-13T08:55:48.799Z,8.8
2023-03-13T08:56:48.834Z,8.82
2023-03-13T08:57:48.507Z,8.87
2023-03-13T08:58:48.259Z,8.83
2023-03-13T08:59:48.761Z,8.82
2023-03-13T09:00:48.756Z,8.87
2023-03-13T09:01:48.793Z,8.85
2023-03-13T09:02:48.848Z,8.85
2023-03-13T09:03:48.722Z,8.82
2023-03-13T09:04:48.413Z,8.82
2023-03-13T09:06:00.518Z,8.94
2023-03-13T09:06:48.759Z,8.92
2023-03-13T09:07:48.649Z,8.97
2023-03-13T09:08:48.675Z,8.97
2023-03-13T09:09:48.599Z,8.92
2023-03-13T09:10:48.597Z,9
2023-03-13T09:11:48.324Z,9.03
2023-03-13T09:12:48.315Z,8.98
2023-03-13T09:13:48.587Z,9.05
2023-03-13T09:14:48.288Z,9.16
2023-03-13T09:15:48.648Z,9.14
2023-03-13T09:16:48.552Z,9.19
2023-03-13T09:17:48.616Z,9.19
2023-03-13T09:18:48.503Z,9.26
2023-03-13T09:20:03.987Z,9.38
2023-03-13T09:20:51.285Z,9.41
2023-03-13T09:21:48.492Z,9.34
2023-03-13T09:22:48.169Z,9.44
2023-03-13T09:23:48.200Z,9.42
2023-03-13T09:24:48.398Z,9.5
2023-03-13T09:25:48.145Z,9.5
2023-03-13T09:27:04.647Z,9.48
2023-03-13T09:27:48.135Z,9.47
2023-03-13T09:28:48.106Z,9.47
2023-03-13T09:29:48.078Z,9.52
2023-03-13T09:30:48.583Z,9.5
2023-03-13T09:31:48.308Z,9.45
2023-03-13T09:32:47.926Z,9.45
2023-03-13T09:33:48.388Z,9.5
2023-03-13T09:34:48.005Z,9.56
2023-03-13T09:35:48.155Z,9.6
2023-03-13T09:36:47.730Z,9.53
2023-03-13T09:37:48.251Z,9.52
2023-03-13T09:38:48.236Z,9.5
2023-03-13T09:39:47.957Z,9.53
2023-03-13T09:41:07.711Z,9.53
2023-03-13T09:41:48.509Z,9.6
2023-03-13T09:42:48.483Z,9.5
2023-03-13T09:43:48.499Z,9.5
2023-03-13T09:44:48.196Z,9.44
2023-03-13T09:45:48.561Z,9.56
2023-03-13T09:46:48.688Z,9.66
2023-03-13T09:47:48.160Z,9.56
2023-03-13T09:48:48.422Z,9.62
2023-03-13T09:49:48.474Z,9.59
2023-03-13T09:50:48.123Z,9.67
2023-03-13T09:51:48.100Z,9.71
2023-03-13T09:52:48.351Z,9.75
2023-03-13T09:53:48.081Z,9.78
2023-03-13T09:54:48.336Z,9.82
2023-03-13T09:55:48.065Z,9.92
2023-03-13T09:56:48.306Z,9.95
2023-03-13T09:57:48.330Z,9.95
2023-03-13T09:58:48.108Z,9.93
2023-03-13T09:59:48.272Z,9.93
2023-03-13T10:00:48.280Z,9.96
2023-03-13T10:01:48.458Z,9.93
2023-03-13T10:02:48.224Z,9.95
2023-03-13T10:03:48.205Z,10.07
2023-03-13T10:04:48.337Z,10.05
2023-03-13T10:05:48.255Z,10.03
2023-03-13T10:06:47.916Z,10.03
2023-03-13T10:07:48.182Z,10.02
2023-03-13T10:08:47.922Z,10.02
2023-03-13T10:09:48.126Z,10.14
2023-03-13T10:10:48.139Z,10.23
2023-03-13T10:11:48.115Z,10.26
2023-03-13T10:12:48.110Z,10.29
2023-03-13T10:13:47.647Z,10.31
2023-03-13T10:14:47.805Z,10.36
2023-03-13T10:15:47.753Z,10.38
2023-03-13T10:16:48.167Z,10.35
2023-03-13T10:17:48.194Z,10.51
2023-03-13T10:18:47.803Z,10.44
2023-03-13T10:19:47.756Z,10.42
2023-03-13T10:20:48.022Z,10.39
2023-03-13T10:21:48.069Z,10.39
2023-03-13T10:22:47.976Z,10.36
2023-03-13T10:23:47.696Z,10.39
2023-03-13T10:24:47.780Z,10.38
2023-03-13T10:25:47.924Z,10.49
2023-03-13T10:26:47.656Z,10.41
2023-03-13T10:27:49.819Z,10.38
2023-03-13T10:28:47.631Z,10.46
2023-03-13T10:29:47.615Z,10.33
2023-03-13T10:30:47.872Z,10.41
2023-03-13T10:31:48.068Z,10.46
2023-03-13T10:32:48.010Z,10.44
2023-03-13T10:33:47.881Z,10.36
2023-03-13T10:34:47.814Z,10.36
2023-03-13T10:35:47.965Z,10.29
2023-03-13T10:36:47.558Z,10.32
2023-03-13T10:37:48.044Z,10.32
2023-03-13T10:38:47.812Z,10.31
2023-03-13T10:39:47.493Z,10.32
2023-03-13T10:40:47.771Z,10.32
2023-03-13T10:41:47.729Z,10.29
2023-03-13T10:42:47.493Z,10.2
2023-03-13T10:43:47.449Z,10.28
2023-03-13T10:44:47.176Z,10.29
2023-03-13T10:45:47.690Z,10.29
2023-03-13T10:46:47.934Z,10.29
2023-03-13T10:47:47.659Z,10.28
2023-03-13T10:48:47.688Z,10.36
2023-03-13T10:49:47.115Z,10.26
2023-03-13T10:50:47.586Z,10.35
2023-03-13T10:51:47.607Z,10.29
2023-03-13T10:52:47.379Z,10.28
2023-03-13T10:53:47.708Z,10.25
2023-03-13T10:54:47.315Z,10.21
2023-03-13T10:55:47.585Z,10.15
2023-03-13T10:56:47.546Z,10.14
2023-03-13T10:57:47.535Z,10.14
2023-03-13T10:58:47.534Z,10.14
2023-03-13T10:59:47.262Z,10.07
2023-03-13T11:00:47.500Z,10.03
2023-03-13T11:01:47.254Z,10.1
2023-03-13T11:02:47.404Z,9.99
2023-03-13T11:03:47.658Z,10.14
2023-03-13T11:04:47.197Z,10.07
2023-03-13T11:05:47.192Z,10.07
2023-03-13T11:06:47.422Z,10
2023-03-13T11:07:47.413Z,10.02
2023-03-13T11:08:47.780Z,10.08
2023-03-13T11:09:47.620Z,10.07
2023-03-13T11:10:47.116Z,10.15
2023-03-13T11:11:47.125Z,10.11
2023-03-13T11:12:47.101Z,10.05
2023-03-13T11:13:47.084Z,10.03
2023-03-13T11:14:47.275Z,10.02
2023-03-13T11:15:47.067Z,10.07
2023-03-13T11:16:48.533Z,10.02
2023-03-13T11:17:46.789Z,10.03
2023-03-13T11:18:47.084Z,10.08
2023-03-13T11:19:46.829Z,10.07
2023-03-13T11:20:47.045Z,10.03
2023-03-13T11:21:46.819Z,10.07
2023-03-13T11:22:47.122Z,10.14
2023-03-13T11:23:46.966Z,10.08
2023-03-13T11:24:47.200Z,10.03
2023-03-13T11:25:47.326Z,10.1
2023-03-13T11:27:06.688Z,10.03
2023-03-13T11:27:46.951Z,10.02
2023-03-13T11:28:47.162Z,10.14
2023-03-13T11:29:47.053Z,10.17
2023-03-13T11:30:46.899Z,10.17
2023-03-13T11:31:47.146Z,10.17
2023-03-13T11:32:47.343Z,10.23
2023-03-13T11:33:46.877Z,10.18
2023-03-13T11:34:46.867Z,10.28
2023-03-13T11:35:46.991Z,10.18
2023-03-13T11:36:46.798Z,10.36
2023-03-13T11:37:47.042Z,10.31
2023-03-13T11:38:47.041Z,10.38
2023-03-13T11:39:47.044Z,10.39
2023-03-13T11:40:46.757Z,10.42
2023-03-13T11:41:47.381Z,10.51
2023-03-13T11:42:46.722Z,10.57
2023-03-13T11:43:47.433Z,10.58
2023-03-13T11:44:46.945Z,10.73
2023-03-13T11:45:47.242Z,10.75
2023-03-13T11:46:47.070Z,10.87
2023-03-13T11:47:46.663Z,10.88
2023-03-13T11:48:46.945Z,11.08
2023-03-13T11:49:46.649Z,11.12
2023-03-13T11:50:46.631Z,11.27
2023-03-13T11:51:46.917Z,11.43
2023-03-13T11:52:47.062Z,11.51
2023-03-13T11:53:46.589Z,11.6
2023-03-13T11:54:46.826Z,11.81
2023-03-13T11:55:46.575Z,11.81
2023-03-13T11:56:46.546Z,11.95
2023-03-13T11:57:46.967Z,12.07
2023-03-13T11:58:46.803Z,12.13
2023-03-13T11:59:46.799Z,12.08
2023-03-13T12:00:46.701Z,12.16
2023-03-13T12:01:48.879Z,12.16
2023-03-13T12:02:46.645Z,12.13
2023-03-13T12:03:46.955Z,12.13
2023-03-13T12:04:46.997Z,12.03
2023-03-13T12:05:46.722Z,12.08
2023-03-13T12:06:46.449Z,12.13
2023-03-13T12:07:46.432Z,12.04
2023-03-13T12:08:46.792Z,12.04
2023-03-13T12:09:46.659Z,12.16
2023-03-13T12:10:46.429Z,12.18
2023-03-13T12:11:47.291Z,12.22
2023-03-13T12:12:46.897Z,12.34
2023-03-13T12:13:46.693Z,12.25
2023-03-13T12:14:46.351Z,12.55
2023-03-13T12:15:46.598Z,12.7
2023-03-13T12:16:46.754Z,12.71
2023-03-13T12:17:46.734Z,12.78
2023-03-13T12:18:46.681Z,12.81
2023-03-13T12:19:46.049Z,12.76
2023-03-13T12:20:46.546Z,12.88
2023-03-13T12:21:46.444Z,12.84
2023-03-13T12:22:46.568Z,12.89
2023-03-13T12:23:46.792Z,12.88
2023-03-13T12:24:46.331Z,12.94
2023-03-13T12:25:46.461Z,13.03
2023-03-13T12:26:45.978Z,13.13
2023-03-13T12:27:46.538Z,13.27
2023-03-13T12:28:46.217Z,13.25
2023-03-13T12:29:46.592Z,13.19
2023-03-13T12:30:46.826Z,13.02
2023-03-13T12:31:46.181Z,12.96
2023-03-13T12:32:46.395Z,12.86
2023-03-13T12:33:46.159Z,12.84
2023-03-13T12:34:46.448Z,12.77
2023-03-13T12:35:46.445Z,12.78
2023-03-13T12:36:46.435Z,12.81
2023-03-13T12:37:46.122Z,12.86
2023-03-13T12:38:46.592Z,12.96
2023-03-13T12:39:46.391Z,12.99
2023-03-13T12:40:46.111Z,12.95
2023-03-13T12:41:46.350Z,13.01
2023-03-13T12:42:45.856Z,13.09
2023-03-13T12:44:00.726Z,13.25
2023-03-13T12:44:45.855Z,13.37
2023-03-13T12:45:46.996Z,13.28
2023-03-13T12:46:46.238Z,13.21
2023-03-13T12:47:46.033Z,13.36
2023-03-13T12:48:46.354Z,13.35
2023-03-13T12:49:46.306Z,13.39
2023-03-13T12:50:46.011Z,13.51
2023-03-13T12:51:46.241Z,13.53
2023-03-13T12:52:46.254Z,13.54
2023-03-13T12:53:46.393Z,13.51
2023-03-13T12:54:46.671Z,13.57
2023-03-13T12:55:46.418Z,13.68
2023-03-13T12:56:46.965Z,13.69
2023-03-13T12:57:46.814Z,13.68
2023-03-13T12:58:46.897Z,13.79
2023-03-13T12:59:46.715Z,13.79
2023-03-13T13:00:46.650Z,13.69
2023-03-13T13:01:47.258Z,13.73
2023-03-13T13:02:46.321Z,13.66
2023-03-13T13:03:46.574Z,13.51
2023-03-13T13:04:46.857Z,13.5
2023-03-13T13:05:46.302Z,13.57
2023-03-13T13:06:46.814Z,13.69
2023-03-13T13:07:46.793Z,13.62
2023-03-13T13:08:46.610Z,13.7
2023-03-13T13:09:46.799Z,13.75
2023-03-13T13:10:46.790Z,13.73
2023-03-13T13:11:46.753Z,13.79
2023-03-13T13:12:46.239Z,13.76
2023-03-13T13:13:46.474Z,13.84
2023-03-13T13:14:46.727Z,13.83
2023-03-13T13:15:46.572Z,13.86
2023-03-13T13:16:46.862Z,13.78
2023-03-13T13:17:46.994Z,13.68
2023-03-13T13:18:46.896Z,13.7
2023-03-13T13:19:46.836Z,13.58
2023-03-13T13:20:46.568Z,13.63
2023-03-13T13:21:46.284Z,13.65
2023-03-13T13:22:46.896Z,13.65
2023-03-13T13:23:46.606Z,13.58
2023-03-13T13:24:46.769Z,13.63
2023-03-13T13:25:46.499Z,13.55
2023-03-13T13:26:46.512Z,13.51
2023-03-13T13:27:46.743Z,13.53
2023-03-13T13:28:46.799Z,13.51
2023-03-13T13:29:46.467Z,13.5
2023-03-13T13:30:46.825Z,13.44
2023-03-13T13:31:47.408Z,13.45